FDX2321 KEWR-KRFD
Flight info
| Callsign | FDX2321 |
|---|---|
| Flight time | N/A |
| Altitude | 36000 |
| Route | SAX148011 JAAJA WEBOR HIGUH EMMAS1 KRFD |
| Aircraft | MD11/H-SDE1E2E3FGHIJ2J3J4J5M1RWXY/LB1D1 |
Departure
| Time | N/A |
|---|---|
| Airport | Newark Liberty International Airport (KEWR) |
Arrival
| Time | 2026-05-09 05:31 |
|---|---|
| Airport | Chicago Rockford International Airport (KRFD) |
| Time | Latitude | Longitude | Altitude | Speed | Heading |
|---|---|---|---|---|---|
| 2026-05-09 04:14 | 42.52825 | -80.65299 | 35885 ft | 396 kts | 283° |
| 2026-05-09 04:14 | 42.53612 | -80.68885 | 35889 ft | 397 kts | 283° |
| 2026-05-09 04:14 | 42.55147 | -80.76010 | 35887 ft | 397 kts | 283° |
| 2026-05-09 04:15 | 42.56689 | -80.83203 | 35886 ft | 397 kts | 283° |
| 2026-05-09 04:15 | 42.58244 | -80.90395 | 35884 ft | 398 kts | 283° |
| 2026-05-09 04:16 | 42.59803 | -80.97599 | 35881 ft | 398 kts | 283° |
| 2026-05-09 04:16 | 42.61361 | -81.04809 | 35882 ft | 398 kts | 283° |
| 2026-05-09 04:17 | 42.62915 | -81.12028 | 35878 ft | 398 kts | 283° |
| 2026-05-09 04:17 | 42.64465 | -81.19255 | 35876 ft | 399 kts | 283° |
| 2026-05-09 04:18 | 42.66010 | -81.26497 | 35877 ft | 399 kts | 283° |
| 2026-05-09 04:18 | 42.66840 | -81.33892 | 35871 ft | 396 kts | 271° |
| 2026-05-09 04:19 | 42.66894 | -81.41386 | 35874 ft | 397 kts | 270° |
| 2026-05-09 04:19 | 42.66893 | -81.48886 | 35869 ft | 397 kts | 270° |
| 2026-05-09 04:20 | 42.66931 | -81.56395 | 35868 ft | 398 kts | 270° |
| 2026-05-09 04:20 | 42.66988 | -81.63912 | 35864 ft | 398 kts | 270° |
| 2026-05-09 04:21 | 42.67045 | -81.71382 | 35865 ft | 398 kts | 270° |
| 2026-05-09 04:22 | 42.67122 | -81.82670 | 35859 ft | 399 kts | 270° |
| 2026-05-09 04:22 | 42.67167 | -81.90206 | 35856 ft | 399 kts | 270° |
| 2026-05-09 04:23 | 42.67208 | -81.97741 | 35856 ft | 399 kts | 270° |
| 2026-05-09 04:23 | 42.67243 | -82.05338 | 35853 ft | 399 kts | 270° |
| 2026-05-09 04:24 | 42.67274 | -82.12883 | 35851 ft | 400 kts | 270° |
| 2026-05-09 04:24 | 42.67299 | -82.20389 | 35846 ft | 400 kts | 270° |
| 2026-05-09 04:25 | 42.67320 | -82.27964 | 35840 ft | 400 kts | 270° |
| 2026-05-09 04:25 | 42.67335 | -82.35513 | 35835 ft | 400 kts | 270° |
| 2026-05-09 04:26 | 42.67344 | -82.43087 | 35831 ft | 401 kts | 270° |
| 2026-05-09 04:26 | 42.67316 | -82.50668 | 35827 ft | 402 kts | 270° |
| 2026-05-09 04:27 | 42.67295 | -82.58263 | 35806 ft | 402 kts | 270° |
| 2026-05-09 04:27 | 42.67284 | -82.65854 | 35799 ft | 402 kts | 270° |
| 2026-05-09 04:28 | 42.67273 | -82.73453 | 35796 ft | 402 kts | 270° |
| 2026-05-09 04:28 | 42.67259 | -82.81051 | 35795 ft | 402 kts | 270° |
| 2026-05-09 04:29 | 42.67239 | -82.88657 | 35795 ft | 403 kts | 270° |
| 2026-05-09 04:29 | 42.67215 | -82.96266 | 35796 ft | 403 kts | 270° |
| 2026-05-09 04:30 | 42.67185 | -83.03875 | 35799 ft | 403 kts | 270° |
| 2026-05-09 04:30 | 42.67150 | -83.11485 | 35829 ft | 403 kts | 270° |
| 2026-05-09 04:31 | 42.67110 | -83.19104 | 35829 ft | 403 kts | 270° |
| 2026-05-09 04:31 | 42.67065 | -83.26727 | 35832 ft | 403 kts | 270° |
| 2026-05-09 04:32 | 42.67015 | -83.34350 | 35833 ft | 404 kts | 270° |
| 2026-05-09 04:32 | 42.66959 | -83.41982 | 35832 ft | 404 kts | 270° |
| 2026-05-09 04:33 | 42.66899 | -83.49620 | 35831 ft | 404 kts | 270° |
| 2026-05-09 04:33 | 42.66828 | -83.57263 | 35832 ft | 404 kts | 269° |
| 2026-05-09 04:34 | 42.66723 | -83.64905 | 35834 ft | 405 kts | 269° |
| 2026-05-09 04:34 | 42.66628 | -83.72554 | 35827 ft | 405 kts | 269° |
| 2026-05-09 04:35 | 42.66542 | -83.80203 | 35826 ft | 405 kts | 270° |
| 2026-05-09 04:35 | 42.66456 | -83.87847 | 35824 ft | 405 kts | 270° |
| 2026-05-09 04:36 | 42.66365 | -83.95493 | 35823 ft | 404 kts | 270° |
| 2026-05-09 04:36 | 42.66286 | -84.01831 | 35823 ft | 404 kts | 270° |
| 2026-05-09 04:37 | 42.66168 | -84.10754 | 35824 ft | 404 kts | 270° |
| 2026-05-09 04:37 | 42.66062 | -84.18373 | 35824 ft | 403 kts | 270° |
| 2026-05-09 04:38 | 42.65951 | -84.25981 | 35826 ft | 403 kts | 270° |
| 2026-05-09 04:38 | 42.65854 | -84.32354 | 35824 ft | 402 kts | 270° |
| 2026-05-09 04:39 | 42.65734 | -84.39945 | 35822 ft | 402 kts | 270° |
| 2026-05-09 04:39 | 42.65608 | -84.47580 | 35822 ft | 401 kts | 270° |
| 2026-05-09 04:40 | 42.65479 | -84.55149 | 35822 ft | 401 kts | 270° |
| 2026-05-09 04:40 | 42.65344 | -84.62710 | 35825 ft | 400 kts | 269° |
| 2026-05-09 04:41 | 42.65199 | -84.70263 | 35815 ft | 400 kts | 269° |
| 2026-05-09 04:41 | 42.65021 | -84.77800 | 35813 ft | 399 kts | 269° |
| 2026-05-09 04:42 | 42.64853 | -84.85332 | 35812 ft | 399 kts | 269° |
| 2026-05-09 04:42 | 42.64694 | -84.92868 | 35814 ft | 399 kts | 269° |
| 2026-05-09 04:43 | 42.64535 | -85.00387 | 35816 ft | 399 kts | 269° |
| 2026-05-09 04:43 | 42.64372 | -85.07915 | 35817 ft | 399 kts | 269° |
| 2026-05-09 04:44 | 42.64203 | -85.15444 | 35819 ft | 399 kts | 269° |
| 2026-05-09 04:44 | 42.64030 | -85.22962 | 35820 ft | 398 kts | 269° |
| 2026-05-09 04:45 | 42.63851 | -85.30487 | 35817 ft | 398 kts | 269° |
| 2026-05-09 04:45 | 42.63668 | -85.38003 | 35815 ft | 398 kts | 269° |
| 2026-05-09 04:46 | 42.63480 | -85.45530 | 35814 ft | 399 kts | 269° |
| 2026-05-09 04:46 | 42.63286 | -85.53056 | 35810 ft | 399 kts | 269° |
| 2026-05-09 04:47 | 42.63089 | -85.60558 | 35810 ft | 399 kts | 269° |
| 2026-05-09 04:47 | 42.62885 | -85.68102 | 35808 ft | 399 kts | 269° |
| 2026-05-09 04:48 | 42.62676 | -85.75631 | 35805 ft | 399 kts | 269° |
| 2026-05-09 04:48 | 42.62458 | -85.83145 | 35804 ft | 399 kts | 269° |
| 2026-05-09 04:49 | 42.62205 | -85.90685 | 35799 ft | 399 kts | 269° |
| 2026-05-09 04:49 | 42.61963 | -85.98204 | 35798 ft | 399 kts | 269° |
| 2026-05-09 04:50 | 42.61732 | -86.05677 | 35796 ft | 399 kts | 269° |
| 2026-05-09 04:50 | 42.61217 | -86.13179 | 35790 ft | 401 kts | 263° |
| 2026-05-09 04:51 | 42.60084 | -86.20604 | 35793 ft | 402 kts | 261° |
| 2026-05-09 04:51 | 42.58869 | -86.28002 | 35794 ft | 402 kts | 261° |
| 2026-05-09 04:52 | 42.57677 | -86.35411 | 35798 ft | 402 kts | 261° |
| 2026-05-09 04:52 | 42.56497 | -86.42822 | 35796 ft | 402 kts | 261° |
| 2026-05-09 04:53 | 42.55319 | -86.50227 | 35794 ft | 402 kts | 261° |
| 2026-05-09 04:53 | 42.54135 | -86.57638 | 35794 ft | 402 kts | 261° |
| 2026-05-09 04:54 | 42.52947 | -86.65039 | 35791 ft | 402 kts | 261° |
| 2026-05-09 04:54 | 42.51753 | -86.72444 | 35673 ft | 404 kts | 261° |
| 2026-05-09 04:54 | 42.51153 | -86.76153 | 35318 ft | 402 kts | 261° |
| 2026-05-09 04:55 | 42.50552 | -86.79856 | 34886 ft | 401 kts | 262° |
| 2026-05-09 04:55 | 42.49952 | -86.83545 | 34349 ft | 400 kts | 262° |
| 2026-05-09 04:55 | 42.49354 | -86.87211 | 33842 ft | 398 kts | 262° |
| 2026-05-09 04:55 | 42.48757 | -86.90873 | 33264 ft | 398 kts | 262° |
| 2026-05-09 04:56 | 42.48157 | -86.94540 | 32724 ft | 399 kts | 262° |
| 2026-05-09 04:56 | 42.47557 | -86.98213 | 32223 ft | 400 kts | 262° |
| 2026-05-09 04:56 | 42.46952 | -87.01902 | 31706 ft | 402 kts | 262° |
| 2026-05-09 04:56 | 42.46343 | -87.05600 | 31196 ft | 403 kts | 262° |
| 2026-05-09 04:57 | 42.45732 | -87.09311 | 30687 ft | 405 kts | 262° |
| 2026-05-09 04:57 | 42.45115 | -87.13045 | 30060 ft | 407 kts | 262° |
| 2026-05-09 04:57 | 42.44497 | -87.16770 | 29343 ft | 404 kts | 262° |
| 2026-05-09 04:57 | 42.43881 | -87.20450 | 28648 ft | 401 kts | 262° |
| 2026-05-09 04:58 | 42.43253 | -87.24119 | 27994 ft | 398 kts | 262° |
| 2026-05-09 04:58 | 42.42629 | -87.27753 | 27379 ft | 395 kts | 262° |
| 2026-05-09 04:58 | 42.42012 | -87.31365 | 26740 ft | 392 kts | 263° |
| 2026-05-09 04:58 | 42.41404 | -87.34948 | 26115 ft | 389 kts | 263° |
| 2026-05-09 04:59 | 42.40804 | -87.38499 | 25505 ft | 387 kts | 263° |
| 2026-05-09 04:59 | 42.40207 | -87.42039 | 24900 ft | 384 kts | 263° |
| 2026-05-09 04:59 | 42.39615 | -87.45547 | 24291 ft | 381 kts | 263° |
| 2026-05-09 04:59 | 42.39027 | -87.49030 | 23694 ft | 379 kts | 264° |
| 2026-05-09 05:00 | 42.38442 | -87.52486 | 23042 ft | 377 kts | 264° |
| 2026-05-09 05:00 | 42.37858 | -87.55938 | 22375 ft | 374 kts | 263° |
| 2026-05-09 05:00 | 42.37279 | -87.59354 | 21766 ft | 372 kts | 263° |
| 2026-05-09 05:00 | 42.36701 | -87.62750 | 21167 ft | 369 kts | 263° |
| 2026-05-09 05:01 | 42.36117 | -87.66178 | 20571 ft | 367 kts | 263° |
| 2026-05-09 05:01 | 42.35555 | -87.69474 | 19998 ft | 365 kts | 263° |
| 2026-05-09 05:01 | 42.34985 | -87.72808 | 19424 ft | 363 kts | 262° |
| 2026-05-09 05:01 | 42.34418 | -87.76115 | 18845 ft | 361 kts | 262° |
| 2026-05-09 05:02 | 42.33854 | -87.79400 | 18283 ft | 358 kts | 262° |
| 2026-05-09 05:02 | 42.33288 | -87.82687 | 17656 ft | 356 kts | 262° |
| 2026-05-09 05:02 | 42.32730 | -87.85926 | 17084 ft | 353 kts | 262° |
| 2026-05-09 05:02 | 42.32170 | -87.89167 | 16681 ft | 350 kts | 262° |
| 2026-05-09 05:03 | 42.31624 | -87.92327 | 16286 ft | 348 kts | 262° |
| 2026-05-09 05:03 | 42.31079 | -87.95474 | 16070 ft | 345 kts | 262° |
| 2026-05-09 05:03 | 42.30673 | -87.98676 | 16021 ft | 341 kts | 270° |
| 2026-05-09 05:03 | 42.30837 | -88.01835 | 15962 ft | 336 kts | 285° |
| 2026-05-09 05:04 | 42.31588 | -88.04785 | 15899 ft | 335 kts | 293° |
| 2026-05-09 05:04 | 42.32569 | -88.07661 | 15835 ft | 334 kts | 295° |
| 2026-05-09 05:04 | 42.33589 | -88.10481 | 15773 ft | 334 kts | 296° |
| 2026-05-09 05:04 | 42.34600 | -88.13280 | 15713 ft | 335 kts | 295° |
| 2026-05-09 05:05 | 42.35617 | -88.16138 | 15648 ft | 335 kts | 295° |
| 2026-05-09 05:05 | 42.36611 | -88.18968 | 15399 ft | 329 kts | 295° |
| 2026-05-09 05:05 | 42.37586 | -88.21774 | 15101 ft | 333 kts | 294° |
| 2026-05-09 05:05 | 42.38562 | -88.24601 | 15033 ft | 333 kts | 294° |
| 2026-05-09 05:06 | 42.39540 | -88.27448 | 15022 ft | 333 kts | 294° |
| 2026-05-09 05:06 | 42.40513 | -88.30288 | 15022 ft | 333 kts | 294° |
| 2026-05-09 05:06 | 42.41485 | -88.33131 | 15024 ft | 333 kts | 294° |
| 2026-05-09 05:06 | 42.42456 | -88.35978 | 15023 ft | 333 kts | 294° |
| 2026-05-09 05:07 | 42.43426 | -88.38829 | 15019 ft | 334 kts | 294° |
| 2026-05-09 05:07 | 42.44408 | -88.41718 | 14733 ft | 334 kts | 294° |
| 2026-05-09 05:07 | 42.45376 | -88.44566 | 14225 ft | 332 kts | 294° |
| 2026-05-09 05:07 | 42.46353 | -88.47436 | 13734 ft | 331 kts | 294° |
| 2026-05-09 05:08 | 42.47315 | -88.50265 | 13199 ft | 330 kts | 294° |
| 2026-05-09 05:08 | 42.48282 | -88.53113 | 12704 ft | 328 kts | 293° |
| 2026-05-09 05:08 | 42.49232 | -88.55924 | 12280 ft | 327 kts | 293° |
| 2026-05-09 05:08 | 42.50175 | -88.58719 | 11886 ft | 326 kts | 293° |
| 2026-05-09 05:09 | 42.51116 | -88.61508 | 11633 ft | 325 kts | 293° |
| 2026-05-09 05:09 | 42.52032 | -88.64225 | 11523 ft | 307 kts | 293° |
| 2026-05-09 05:09 | 42.52891 | -88.66769 | 11408 ft | 287 kts | 293° |
| 2026-05-09 05:09 | 42.53697 | -88.69158 | 11315 ft | 271 kts | 293° |
| 2026-05-09 05:10 | 42.54458 | -88.71415 | 11225 ft | 258 kts | 293° |
| 2026-05-09 05:10 | 42.55199 | -88.73620 | 11120 ft | 255 kts | 293° |
| 2026-05-09 05:10 | 42.55880 | -88.75835 | 11022 ft | 254 kts | 287° |
| 2026-05-09 05:10 | 42.56302 | -88.78156 | 10988 ft | 255 kts | 282° |
| 2026-05-09 05:11 | 42.56530 | -88.79716 | 10949 ft | 255 kts | 281° |
| 2026-05-09 05:11 | 42.56968 | -88.82885 | 10783 ft | 257 kts | 281° |
| 2026-05-09 05:11 | 42.57093 | -88.83810 | 10600 ft | 258 kts | 281° |
| 2026-05-09 05:14 | 42.57328 | -88.85541 | 10298 ft | 256 kts | 281° |
| 2026-05-09 05:15 | 42.57609 | -88.87614 | 9994 ft | 252 kts | 281° |
| 2026-05-09 05:15 | 42.57924 | -88.89942 | 9628 ft | 249 kts | 281° |
| 2026-05-09 05:15 | 42.58239 | -88.92273 | 9221 ft | 248 kts | 280° |
| 2026-05-09 05:15 | 42.58550 | -88.94583 | 9029 ft | 245 kts | 280° |
| 2026-05-09 05:16 | 42.58869 | -88.96948 | 8695 ft | 253 kts | 280° |
| 2026-05-09 05:16 | 42.59133 | -88.99384 | 7987 ft | 261 kts | 273° |
| 2026-05-09 05:16 | 42.58919 | -89.01766 | 7456 ft | 252 kts | 253° |
| 2026-05-09 05:16 | 42.58054 | -89.03824 | 7031 ft | 255 kts | 236° |
| 2026-05-09 05:17 | 42.56899 | -89.05649 | 6630 ft | 256 kts | 232° |
| 2026-05-09 05:17 | 42.55696 | -89.07424 | 6228 ft | 255 kts | 231° |
| 2026-05-09 05:17 | 42.54455 | -89.09142 | 5807 ft | 255 kts | 224° |
| 2026-05-09 05:17 | 42.52901 | -89.10313 | 5421 ft | 260 kts | 201° |
| 2026-05-09 05:18 | 42.51118 | -89.10807 | 5053 ft | 263 kts | 193° |
| 2026-05-09 05:18 | 42.49302 | -89.11124 | 4677 ft | 263 kts | 191° |
| 2026-05-09 05:18 | 42.47488 | -89.11411 | 4284 ft | 262 kts | 190° |
| 2026-05-09 05:18 | 42.45685 | -89.11690 | 4058 ft | 259 kts | 189° |
| 2026-05-09 05:19 | 42.43885 | -89.11945 | 4017 ft | 261 kts | 189° |
| 2026-05-09 05:19 | 42.42081 | -89.12210 | 4008 ft | 249 kts | 193° |
| 2026-05-09 05:19 | 42.40565 | -89.13042 | 4008 ft | 227 kts | 223° |
| 2026-05-09 05:19 | 42.39660 | -89.14686 | 3910 ft | 216 kts | 252° |
| 2026-05-09 05:20 | 42.39548 | -89.16676 | 3515 ft | 215 kts | 284° |
| 2026-05-09 05:20 | 42.40248 | -89.18430 | 3181 ft | 211 kts | 309° |
| 2026-05-09 05:20 | 42.41364 | -89.19647 | 2773 ft | 207 kts | 336° |
| 2026-05-09 05:20 | 42.42772 | -89.19822 | 2428 ft | 204 kts | 8° |
| 2026-05-09 05:21 | 42.44154 | -89.19347 | 2420 ft | 207 kts | 12° |
| 2026-05-09 05:21 | 42.45545 | -89.18840 | 2401 ft | 207 kts | 12° |
| 2026-05-09 05:21 | 42.46934 | -89.18337 | 2387 ft | 207 kts | 12° |
| 2026-05-09 05:21 | 42.48325 | -89.17834 | 2390 ft | 207 kts | 12° |
| 2026-05-09 05:22 | 42.49717 | -89.17329 | 2388 ft | 206 kts | 12° |
| 2026-05-09 05:22 | 42.51107 | -89.16830 | 2389 ft | 206 kts | 11° |
| 2026-05-09 05:22 | 42.52460 | -89.16193 | 2374 ft | 210 kts | 29° |
| 2026-05-09 05:22 | 42.53424 | -89.14731 | 2377 ft | 214 kts | 65° |
| 2026-05-09 05:23 | 42.53640 | -89.12743 | 2405 ft | 217 kts | 95° |
| 2026-05-09 05:23 | 42.53439 | -89.10700 | 2410 ft | 218 kts | 98° |
| 2026-05-09 05:23 | 42.53003 | -89.08743 | 2382 ft | 217 kts | 118° |
| 2026-05-09 05:23 | 42.52143 | -89.07086 | 2378 ft | 206 kts | 136° |
| 2026-05-09 05:24 | 42.51044 | -89.05911 | 2388 ft | 200 kts | 153° |
| 2026-05-09 05:24 | 42.49773 | -89.05222 | 2381 ft | 196 kts | 171° |
| 2026-05-09 05:24 | 42.48426 | -89.05031 | 2385 ft | 194 kts | 185° |
| 2026-05-09 05:24 | 42.47087 | -89.05191 | 2398 ft | 193 kts | 191° |
| 2026-05-09 05:25 | 42.45756 | -89.05413 | 2392 ft | 192 kts | 191° |
| 2026-05-09 05:25 | 42.44411 | -89.05629 | 2393 ft | 192 kts | 190° |
| 2026-05-09 05:25 | 42.41809 | -89.06020 | 2398 ft | 192 kts | 189° |
| 2026-05-09 05:26 | 42.40462 | -89.06213 | 2417 ft | 193 kts | 190° |
| 2026-05-09 05:26 | 42.39133 | -89.06400 | 2418 ft | 192 kts | 189° |
| 2026-05-09 05:26 | 42.37798 | -89.06583 | 2425 ft | 192 kts | 189° |
| 2026-05-09 05:26 | 42.36468 | -89.06763 | 2422 ft | 192 kts | 189° |
| 2026-05-09 05:27 | 42.35134 | -89.06942 | 2425 ft | 193 kts | 189° |
| 2026-05-09 05:27 | 42.33804 | -89.07118 | 2433 ft | 192 kts | 189° |
| 2026-05-09 05:27 | 42.32510 | -89.07286 | 2397 ft | 176 kts | 189° |
| 2026-05-09 05:27 | 42.31343 | -89.07434 | 2418 ft | 165 kts | 190° |
| 2026-05-09 05:28 | 42.30199 | -89.07584 | 2441 ft | 165 kts | 190° |
| 2026-05-09 05:28 | 42.29065 | -89.07743 | 2362 ft | 163 kts | 191° |
| 2026-05-09 05:28 | 42.27937 | -89.07911 | 2178 ft | 163 kts | 190° |
| 2026-05-09 05:28 | 42.26811 | -89.08054 | 2009 ft | 162 kts | 189° |
| 2026-05-09 05:29 | 42.25689 | -89.08186 | 1805 ft | 162 kts | 189° |
| 2026-05-09 05:29 | 42.24596 | -89.08334 | 1595 ft | 160 kts | 189° |
| 2026-05-09 05:29 | 42.23493 | -89.08496 | 1386 ft | 157 kts | 187° |
| 2026-05-09 05:29 | 42.22418 | -89.08622 | 1167 ft | 154 kts | 187° |
| 2026-05-09 05:30 | 42.21591 | -89.08733 | 991 ft | 154 kts | 185° |
| 2026-05-09 05:30 | 42.20645 | -89.08844 | 797 ft | 153 kts | 186° |
| 2026-05-09 05:30 | 42.19683 | -89.08976 | 747 ft | 114 kts | 185° |
| 2026-05-09 05:30 | 42.19086 | -89.09046 | 744 ft | 58 kts | 185° |
| 2026-05-09 05:31 | 42.18778 | -89.09088 | 738 ft | 41 kts | 185° |
| 2026-05-09 05:31 | 42.18520 | -89.09115 | 732 ft | 30 kts | 186° |
| 2026-05-09 05:31 | 42.18389 | -89.09150 | 730 ft | 8 kts | 220° |
| 2026-05-09 05:31 | 42.18366 | -89.09244 | 729 ft | 15 kts | 268° |
| 2026-05-09 05:32 | 42.18399 | -89.09348 | 727 ft | 5 kts | 332° |
| 2026-05-09 05:32 | 42.18456 | -89.09352 | 728 ft | 11 kts | 4° |
| 2026-05-09 05:32 | 42.18552 | -89.09340 | 731 ft | 16 kts | 5° |
| 2026-05-09 05:32 | 42.18682 | -89.09324 | 736 ft | 21 kts | 5° |
| 2026-05-09 05:33 | 42.18836 | -89.09304 | 739 ft | 22 kts | 6° |
| 2026-05-09 05:33 | 42.18985 | -89.09283 | 742 ft | 20 kts | 6° |
| 2026-05-09 05:33 | 42.19127 | -89.09265 | 744 ft | 21 kts | 5° |
| 2026-05-09 05:33 | 42.19270 | -89.09248 | 746 ft | 20 kts | 5° |
| 2026-05-09 05:34 | 42.19408 | -89.09236 | 746 ft | 14 kts | 355° |
| 2026-05-09 05:34 | 42.19481 | -89.09304 | 744 ft | 15 kts | 308° |
| 2026-05-09 05:34 | 42.19552 | -89.09439 | 742 ft | 21 kts | 305° |
| 2026-05-09 05:34 | 42.19639 | -89.09601 | 743 ft | 22 kts | 306° |
| 2026-05-09 05:35 | 42.19729 | -89.09771 | 742 ft | 23 kts | 303° |
| 2026-05-09 05:35 | 42.19802 | -89.09910 | 743 ft | 16 kts | 324° |
| 2026-05-09 05:35 | 42.19822 | -89.09987 | 740 ft | 9 kts | 251° |
| 2026-05-09 05:35 | 42.19791 | -89.10091 | 741 ft | 15 kts | 248° |
| 2026-05-09 05:36 | 42.19778 | -89.10200 | 742 ft | 2 kts | 295° |
| 2026-05-09 05:36 | 42.19799 | -89.10225 | 741 ft | 7 kts | 316° |
| 2026-05-09 05:36 | 42.19812 | -89.10289 | 739 ft | 10 kts | 278° |
| 2026-05-09 05:36 | 42.19836 | -89.10333 | 741 ft | 5 kts | 328° |
| 2026-05-09 05:37 | 42.19869 | -89.10354 | 741 ft | 9 kts | 343° |
| 2026-05-09 05:37 | 42.19905 | -89.10334 | 739 ft | 0 kts | 57° |
| 2026-05-09 05:37 | 42.19906 | -89.10333 | 739 ft | 0 kts | 57° |